Time;durP1;ratioP1;P1;durP2;ratioP2;P2;SDS_P1;SDS_P2;PMS_P1;PMS_P2;Temp;Humidity;BMP_temperature;BMP_pressure;BME280_temperature;BME280_humidity;BME280_pressure;Samples;Min_cycle;Max_cycle;Signal;HPM_P1;HPM_P2
2023/02/28 00:00:44;;;;;;;0.40;0.40;;;3.00;99.90;;;;;;4394568;32;20134;-73
2023/02/28 00:03:10;;;;;;;0.45;0.45;;;2.90;99.90;;;;;;4390348;32;20078;-73
2023/02/28 00:05:35;;;;;;;0.43;0.43;;;2.90;99.90;;;;;;4391908;32;20470;-73
2023/02/28 00:08:01;;;;;;;1.05;1.00;;;2.90;99.90;;;;;;4390799;32;20093;-73
2023/02/28 00:10:29;;;;;;;0.32;0.32;;;2.90;99.90;;;;;;4391829;32;20872;-74
2023/02/28 00:13:00;;;;;;;0.70;0.70;;;2.90;99.90;;;;;;4391833;32;20058;-73
2023/02/28 00:15:26;;;;;;;0.70;0.70;;;3.00;99.90;;;;;;4393026;32;20086;-72
2023/02/28 00:17:52;;;;;;;0.60;0.60;;;2.90;99.90;;;;;;4391344;32;20198;-73
2023/02/28 00:20:18;;;;;;;0.65;0.65;;;2.90;99.90;;;;;;4394681;32;20074;-73
2023/02/28 00:22:47;;;;;;;0.50;0.50;;;3.00;99.90;;;;;;4391680;32;20070;-74
2023/02/28 00:25:16;;;;;;;0.60;0.60;;;3.00;99.90;;;;;;4391941;32;20070;-74
2023/02/28 00:27:42;;;;;;;9.20;0.82;;;3.00;99.90;;;;;;4393103;32;20075;-74
2023/02/28 00:30:14;;;;;;;0.50;0.50;;;3.00;99.90;;;;;;4393306;32;20150;-74
2023/02/28 00:32:40;;;;;;;0.55;0.55;;;2.90;99.90;;;;;;4390856;32;20113;-74
2023/02/28 00:35:07;;;;;;;0.50;0.50;;;2.90;99.90;;;;;;4390227;32;20077;-74
2023/02/28 00:37:36;;;;;;;6.12;1.25;;;2.90;99.90;;;;;;4390328;32;20501;-74
2023/02/28 00:40:04;;;;;;;0.82;0.82;;;2.90;99.90;;;;;;4389670;32;20093;-74
2023/02/28 00:42:30;;;;;;;0.43;0.43;;;2.80;99.90;;;;;;4391428;32;20531;-73
2023/02/28 00:44:55;;;;;;;0.40;0.40;;;2.80;99.90;;;;;;4387986;32;20073;-73
2023/02/28 00:47:21;;;;;;;0.52;0.52;;;2.80;99.90;;;;;;4389304;32;20094;-74
2023/02/28 00:49:48;;;;;;;0.60;0.60;;;2.80;99.90;;;;;;4391284;32;20186;-74
2023/02/28 00:52:14;;;;;;;0.62;0.62;;;2.70;99.90;;;;;;4390850;32;20097;-74
2023/02/28 00:54:39;;;;;;;0.40;0.40;;;2.70;99.90;;;;;;4391751;32;20082;-73
2023/02/28 00:57:05;;;;;;;0.60;0.60;;;2.70;99.90;;;;;;4393038;32;20090;-73
2023/02/28 00:59:30;;;;;;;0.80;0.80;;;2.70;99.90;;;;;;4391651;32;20090;-73
2023/02/28 01:01:56;;;;;;;0.47;0.47;;;2.70;99.90;;;;;;4390008;32;20066;-73
2023/02/28 01:04:22;;;;;;;0.40;0.40;;;2.80;99.90;;;;;;4392517;32;20077;-73
2023/02/28 01:06:47;;;;;;;0.68;0.68;;;2.80;99.90;;;;;;4392196;32;20174;-73
2023/02/28 01:09:13;;;;;;;0.50;0.50;;;2.80;99.90;;;;;;4389368;32;20081;-74
2023/02/28 01:11:41;;;;;;;0.70;0.70;;;2.70;99.90;;;;;;4390416;32;20114;-73
2023/02/28 01:14:07;;;;;;;0.90;0.90;;;2.70;99.90;;;;;;4389544;32;20073;-74
2023/02/28 01:16:32;;;;;;;3.90;1.23;;;2.70;99.90;;;;;;4389527;32;20085;-73
2023/02/28 01:18:58;;;;;;;0.60;0.60;;;2.70;99.90;;;;;;4390577;32;20189;-73
2023/02/28 01:21:23;;;;;;;0.62;0.62;;;2.60;99.90;;;;;;4389846;32;20082;-73
2023/02/28 01:23:49;;;;;;;0.65;0.65;;;2.70;99.90;;;;;;4389623;32;20515;-74
2023/02/28 01:26:19;;;;;;;3.85;1.00;;;2.70;99.90;;;;;;4393560;32;20450;-74
2023/02/28 01:28:44;;;;;;;1.00;0.93;;;2.70;99.90;;;;;;4393223;32;20124;-73
2023/02/28 01:31:11;;;;;;;0.77;0.77;;;2.60;99.90;;;;;;4390605;32;20069;-73
2023/02/28 01:33:37;;;;;;;0.47;0.47;;;2.60;99.90;;;;;;4389985;32;20073;-74
2023/02/28 01:36:10;;;;;;;1.05;1.00;;;2.50;99.90;;;;;;4391303;32;20489;-74
2023/02/28 01:38:36;;;;;;;0.40;0.40;;;2.50;99.90;;;;;;4389059;32;20061;-73
2023/02/28 01:41:02;;;;;;;0.50;0.50;;;2.50;99.90;;;;;;4387259;32;20079;-73
2023/02/28 01:43:32;;;;;;;0.52;0.52;;;2.50;99.90;;;;;;4387889;32;20074;-73
2023/02/28 01:45:59;;;;;;;1.95;1.15;;;2.50;99.90;;;;;;4390881;32;20074;-73
2023/02/28 01:48:30;;;;;;;0.50;0.50;;;2.40;99.90;;;;;;4390604;32;20074;-73
2023/02/28 01:51:03;;;;;;;0.73;0.70;;;2.30;99.90;;;;;;4390367;32;20412;-74
2023/02/28 01:53:34;;;;;;;0.70;0.70;;;2.30;99.90;;;;;;4389858;32;20074;-73
2023/02/28 01:56:03;;;;;;;0.50;0.50;;;2.40;99.90;;;;;;4389364;32;20127;-73
2023/02/28 01:58:29;;;;;;;0.52;0.52;;;2.40;99.90;;;;;;4389034;32;20114;-73
2023/02/28 02:00:54;;;;;;;0.82;0.70;;;2.30;99.90;;;;;;4388721;32;20069;-74
2023/02/28 02:03:20;;;;;;;0.50;0.50;;;2.20;99.90;;;;;;4388823;32;20434;-73
2023/02/28 02:05:47;;;;;;;0.60;0.60;;;2.10;99.90;;;;;;4390481;32;20070;-73
2023/02/28 02:08:17;;;;;;;0.77;0.77;;;2.10;99.90;;;;;;4387920;32;20097;-73
2023/02/28 02:10:47;;;;;;;1.95;1.25;;;2.00;99.90;;;;;;4386007;32;20166;-74
2023/02/28 02:13:33;;;;;;;0.55;0.55;;;2.00;99.90;;;;;;4391006;32;20649;-74
2023/02/28 02:16:06;;;;;;;0.75;0.75;;;2.00;99.90;;;;;;4390816;32;20057;-73
2023/02/28 02:18:54;;;;;;;0.95;0.95;;;2.00;99.90;;;;;;4393245;32;20085;-74
2023/02/28 02:21:34;;;;;;;0.65;0.65;;;2.00;99.90;;;;;;4376740;32;20517;-73
2023/02/28 02:24:40;;;;;;;0.60;0.60;;;2.00;99.90;;;;;;4390041;32;20059;-73
2023/02/28 02:27:27;;;;;;;0.62;0.62;;;1.90;99.90;;;;;;4367148;32;20098;-73
2023/02/28 02:30:11;;;;;;;0.60;0.60;;;1.80;99.90;;;;;;4389907;32;20086;-73
2023/02/28 02:33:04;;;;;;;0.52;0.52;;;1.60;99.90;;;;;;4388248;32;20097;-74
2023/02/28 02:35:53;;;;;;;1.00;1.00;;;1.50;99.90;;;;;;4386717;32;20073;-73
2023/02/28 02:38:45;;;;;;;0.70;0.70;;;1.60;99.90;;;;;;4375917;32;21322;-73
2023/02/28 02:41:35;;;;;;;0.77;0.77;;;1.60;99.90;;;;;;4376428;32;20126;-74
2023/02/28 02:44:25;;;;;;;0.70;0.70;;;1.50;99.90;;;;;;4379530;32;20074;-74
2023/02/28 02:46:57;;;;;;;0.50;0.50;;;1.50;99.90;;;;;;4390186;32;20157;-73
2023/02/28 02:49:29;;;;;;;2.20;1.35;;;1.40;99.90;;;;;;4392121;32;20387;-74
2023/02/28 02:51:57;;;;;;;0.73;0.73;;;1.30;99.90;;;;;;4389195;32;20622;-74
2023/02/28 02:54:28;;;;;;;0.50;0.50;;;1.10;99.90;;;;;;4388033;32;20078;-74
2023/02/28 02:56:59;;;;;;;7.32;1.95;;;1.20;99.90;;;;;;4387547;32;20086;-73
2023/02/28 02:59:28;;;;;;;0.60;0.60;;;1.20;99.90;;;;;;4387510;32;20078;-73
2023/02/28 03:01:56;;;;;;;0.40;0.40;;;1.20;99.90;;;;;;4388339;32;20159;-74
2023/02/28 03:04:24;;;;;;;0.52;0.52;;;1.20;99.90;;;;;;4388448;32;20146;-74
2023/02/28 03:06:54;;;;;;;1.35;1.10;;;1.10;99.90;;;;;;4389986;32;20062;-73
2023/02/28 03:09:21;;;;;;;0.50;0.50;;;0.90;99.90;;;;;;4390058;32;20217;-73
2023/02/28 03:11:48;;;;;;;0.50;0.50;;;0.80;99.90;;;;;;4385223;32;20471;-73
2023/02/28 03:14:44;;;;;;;0.65;0.65;;;0.70;99.90;;;;;;4390545;32;20074;-73
2023/02/28 03:17:24;;;;;;;0.70;0.70;;;0.80;99.90;;;;;;4381357;32;20050;-75
2023/02/28 03:20:04;;;;;;;14.30;2.60;;;0.90;99.90;;;;;;4391750;32;20085;-73
2023/02/28 03:22:44;;;;;;;0.68;0.68;;;0.80;99.90;;;;;;4392006;32;20505;-73
2023/02/28 03:25:20;;;;;;;0.47;0.47;;;0.90;99.90;;;;;;4391547;32;20100;-73
2023/02/28 03:27:55;;;;;;;2.83;1.70;;;0.90;99.90;;;;;;4390437;32;20082;-74
2023/02/28 03:30:53;;;;;;;0.50;0.50;;;0.80;99.90;;;;;;4391846;32;20418;-73
2023/02/28 03:33:24;;;;;;;0.40;0.40;;;0.70;99.90;;;;;;4379813;32;20079;-74
2023/02/28 03:35:53;;;;;;;;;;;0.80;99.90;;;;;;4391658;32;20082;-73
2023/02/28 03:38:27;;;;;;;0.40;0.40;;;0.70;99.90;;;;;;4393185;32;19998;-73
2023/02/28 03:41:02;;;;;;;0.93;0.93;;;0.70;99.90;;;;;;4388087;32;20054;-73
2023/02/28 03:43:34;;;;;;;0.70;0.70;;;0.80;99.90;;;;;;4390726;32;20470;-73
2023/02/28 03:46:05;;;;;;;0.47;0.47;;;0.80;99.90;;;;;;4393900;32;20260;-73
2023/02/28 03:48:38;;;;;;;0.60;0.60;;;0.80;99.90;;;;;;4390384;32;20082;-73
2023/02/28 03:51:09;;;;;;;1.05;1.05;;;0.80;99.90;;;;;;4390351;32;20098;-73
2023/02/28 03:53:39;;;;;;;0.68;0.68;;;0.80;99.90;;;;;;4391382;32;20074;-73
2023/02/28 03:56:16;;;;;;;1.17;1.05;;;0.60;99.90;;;;;;4391969;32;20090;-73
2023/02/28 03:59:07;;;;;;;0.50;0.50;;;0.60;99.90;;;;;;4393581;32;20108;-74
2023/02/28 04:01:41;;;;;;;0.68;0.68;;;0.70;99.90;;;;;;4381376;32;20251;-74
2023/02/28 04:04:06;;;;;;;0.75;0.75;;;0.70;99.90;;;;;;4391572;32;20604;-74
2023/02/28 04:06:33;;;;;;;0.60;0.60;;;0.50;99.90;;;;;;4390801;32;20119;-74
2023/02/28 04:08:59;;;;;;;0.50;0.50;;;0.40;99.90;;;;;;4393846;32;20121;-74
2023/02/28 04:11:35;;;;;;;0.50;0.50;;;0.30;99.90;;;;;;4390991;32;20085;-74
2023/02/28 04:14:03;;;;;;;0.50;0.50;;;0.30;99.90;;;;;;4389403;32;20286;-74
2023/02/28 04:16:30;;;;;;;1.35;1.25;;;0.30;99.90;;;;;;4389149;32;20497;-74
2023/02/28 04:19:01;;;;;;;0.57;0.57;;;0.20;99.90;;;;;;4395978;32;20066;-74
2023/02/28 04:21:28;;;;;;;0.75;0.75;;;0.20;99.90;;;;;;4391829;32;20113;-74
2023/02/28 04:23:55;;;;;;;0.50;0.50;;;0.10;99.90;;;;;;4391718;32;20632;-74
2023/02/28 04:26:21;;;;;;;0.65;0.65;;;0.10;99.90;;;;;;4390176;32;20090;-74
2023/02/28 04:28:46;;;;;;;1.08;1.08;;;0.10;99.90;;;;;;4389589;32;20078;-74
2023/02/28 04:31:12;;;;;;;0.50;0.50;;;0.10;99.90;;;;;;4391455;32;20085;-74
2023/02/28 04:33:37;;;;;;;0.95;0.95;;;0.20;99.90;;;;;;4393236;32;20121;-74
2023/02/28 04:36:05;;;;;;;0.75;0.75;;;0.10;99.90;;;;;;4390936;32;20102;-74
2023/02/28 04:38:36;;;;;;;0.40;0.40;;;0.10;99.90;;;;;;4392614;32;20066;-74
2023/02/28 04:41:02;;;;;;;0.57;0.57;;;0.00;99.90;;;;;;4390137;32;20074;-74
2023/02/28 04:43:29;;;;;;;4.85;1.05;;;0.10;99.90;;;;;;4392869;32;20453;-74
2023/02/28 04:45:56;;;;;;;0.98;0.65;;;0.10;99.90;;;;;;4392879;32;20509;-73
2023/02/28 04:48:24;;;;;;;0.77;0.77;;;0.30;99.90;;;;;;4391866;32;20094;-74
2023/02/28 04:50:50;;;;;;;0.80;0.80;;;0.20;99.90;;;;;;4392516;32;20174;-74
2023/02/28 04:53:15;;;;;;;0.43;0.43;;;0.20;99.90;;;;;;4393014;32;20590;-74
2023/02/28 04:55:41;;;;;;;0.50;0.50;;;0.10;99.90;;;;;;4390142;32;20066;-74
2023/02/28 04:58:06;;;;;;;0.47;0.47;;;0.10;99.90;;;;;;4390027;32;20113;-74
2023/02/28 05:00:32;;;;;;;0.80;0.80;;;0.10;99.90;;;;;;4391399;32;20110;-74
2023/02/28 05:02:57;;;;;;;0.40;0.40;;;0.10;99.90;;;;;;4391030;32;20149;-74
2023/02/28 05:05:23;;;;;;;0.65;0.65;;;0.00;99.90;;;;;;4394913;32;20600;-74
2023/02/28 05:07:48;;;;;;;0.47;0.47;;;0.00;99.90;;;;;;4391038;32;20238;-74
2023/02/28 05:10:14;;;;;;;0.60;0.60;;;-0.20;99.90;;;;;;4390187;32;20075;-73
2023/02/28 05:12:39;;;;;;;0.68;0.68;;;-0.10;99.90;;;;;;4389802;32;20121;-74
2023/02/28 05:15:05;;;;;;;0.70;0.70;;;-0.10;99.90;;;;;;4391532;32;21445;-74
2023/02/28 05:17:31;;;;;;;0.60;0.60;;;0.00;99.90;;;;;;4392579;32;20069;-74
2023/02/28 05:19:56;;;;;;;0.68;0.68;;;0.00;99.90;;;;;;4391732;32;20070;-74
2023/02/28 05:22:22;;;;;;;0.68;0.68;;;0.00;99.90;;;;;;4386689;32;20149;-74
2023/02/28 05:24:50;;;;;;;0.60;0.60;;;0.00;99.90;;;;;;4389114;32;20734;-73
2023/02/28 05:27:16;;;;;;;4.47;1.55;;;-0.10;99.90;;;;;;4391487;32;20157;-73
2023/02/28 05:29:43;;;;;;;0.70;0.70;;;-0.10;99.90;;;;;;4392911;32;20089;-73
2023/02/28 05:32:10;;;;;;;0.50;0.50;;;-0.10;99.90;;;;;;4391406;32;20542;-74
2023/02/28 05:34:38;;;;;;;0.57;0.57;;;-0.10;99.90;;;;;;4393032;32;20078;-74
2023/02/28 05:37:10;;;;;;;5.47;1.65;;;0.00;99.90;;;;;;4389921;32;20129;-73
2023/02/28 05:39:37;;;;;;;0.47;0.47;;;-0.20;99.90;;;;;;4388846;32;20423;-74
2023/02/28 05:42:02;;;;;;;0.57;0.57;;;-0.20;99.90;;;;;;4389892;32;20074;-73
2023/02/28 05:44:28;;;;;;;1.05;1.02;;;-0.30;99.90;;;;;;4391808;32;20553;-74
2023/02/28 05:46:53;;;;;;;0.50;0.50;;;-0.20;99.90;;;;;;4389327;32;20427;-74
2023/02/28 05:49:19;;;;;;;0.70;0.70;;;-0.20;99.90;;;;;;4391345;32;20087;-74
2023/02/28 05:51:44;;;;;;;1.30;1.20;;;-0.10;99.90;;;;;;4390887;32;20537;-73
2023/02/28 05:54:10;;;;;;;2.97;1.83;;;-0.20;99.90;;;;;;4390089;32;20561;-74
2023/02/28 05:56:37;;;;;;;0.77;0.77;;;-0.30;99.90;;;;;;4391973;32;20065;-73
2023/02/28 05:59:03;;;;;;;0.50;0.50;;;-0.30;99.90;;;;;;4389556;32;20098;-74
2023/02/28 06:01:40;;;;;;;0.40;0.40;;;-0.30;99.90;;;;;;4386403;32;20107;-73
2023/02/28 06:04:09;;;;;;;0.68;0.68;;;-0.40;99.90;;;;;;4390333;32;20126;-74
2023/02/28 06:06:35;;;;;;;0.52;0.52;;;-0.40;99.90;;;;;;4388135;32;20082;-73
2023/02/28 06:09:01;;;;;;;0.88;0.88;;;-0.40;99.90;;;;;;4389221;32;20086;-73
2023/02/28 06:11:27;;;;;;;2.90;1.27;;;-0.40;99.90;;;;;;4387040;32;20217;-74
2023/02/28 06:13:55;;;;;;;0.40;0.40;;;-0.40;99.90;;;;;;4389474;32;20123;-73
2023/02/28 06:16:22;;;;;;;1.33;1.23;;;-0.40;99.90;;;;;;4387233;32;20075;-73
2023/02/28 06:18:47;;;;;;;0.77;0.77;;;-0.20;99.90;;;;;;4378328;32;20637;-73
2023/02/28 06:21:13;;;;;;;1.17;1.15;;;-0.10;99.90;;;;;;4387268;32;20062;-73
2023/02/28 06:23:38;;;;;;;0.88;0.88;;;-0.10;99.90;;;;;;4384802;32;20135;-74
2023/02/28 06:26:05;;;;;;;0.52;0.52;;;0.00;99.90;;;;;;4371403;32;20094;-74
2023/02/28 06:28:31;;;;;;;5.47;2.17;;;-0.10;99.90;;;;;;4378710;32;20105;-75
2023/02/28 06:30:56;;;;;;;0.40;0.40;;;-0.10;99.90;;;;;;4366622;32;20475;-74
2023/02/28 06:33:23;;;;;;;0.50;0.50;;;-0.10;99.90;;;;;;4373050;32;20098;-74
2023/02/28 06:35:52;;;;;;;0.90;0.90;;;-0.10;99.90;;;;;;4368443;32;20447;-74
2023/02/28 06:38:18;;;;;;;2.22;1.05;;;-0.10;99.90;;;;;;4375336;32;20214;-74
2023/02/28 06:40:44;;;;;;;1.02;0.70;;;0.00;99.90;;;;;;4376221;32;20070;-74
2023/02/28 06:43:13;;;;;;;0.93;0.93;;;0.00;99.90;;;;;;4378638;32;20471;-74
2023/02/28 06:45:43;;;;;;;0.60;0.60;;;0.10;99.90;;;;;;4382204;32;20098;-75
2023/02/28 06:48:08;;;;;;;0.83;0.83;;;0.20;99.90;;;;;;4381805;32;20145;-74
2023/02/28 06:50:34;;;;;;;0.68;0.68;;;0.30;99.90;;;;;;4380336;32;20219;-73
2023/02/28 06:52:59;;;;;;;3.80;0.82;;;0.40;99.90;;;;;;4375707;32;20094;-73
2023/02/28 06:55:25;;;;;;;2.20;1.27;;;0.40;99.90;;;;;;4374580;32;20110;-72
2023/02/28 06:57:50;;;;;;;1.55;1.45;;;0.60;99.90;;;;;;4361139;32;20244;-72
2023/02/28 07:00:16;;;;;;;0.57;0.57;;;0.70;99.90;;;;;;4361888;32;20102;-72
2023/02/28 07:02:42;;;;;;;0.77;0.77;;;0.80;99.90;;;;;;4350342;32;20122;-72
2023/02/28 07:05:08;;;;;;;0.73;0.73;;;0.80;99.90;;;;;;4354679;32;20673;-72
2023/02/28 07:07:35;;;;;;;1.37;1.15;;;0.90;99.90;;;;;;4360166;32;20156;-72
2023/02/28 07:10:01;;;;;;;0.98;0.95;;;1.00;99.90;;;;;;4360813;32;20094;-72
2023/02/28 07:12:27;;;;;;;0.85;0.85;;;1.10;99.90;;;;;;4348062;32;22080;-72
2023/02/28 07:14:52;;;;;;;1.17;1.08;;;1.10;99.90;;;;;;4350661;32;20245;-72
2023/02/28 07:17:18;;;;;;;1.33;0.98;;;1.20;99.90;;;;;;4347322;32;20137;-72
2023/02/28 07:19:43;;;;;;;5.30;1.65;;;1.30;99.90;;;;;;4352325;32;20109;-72
2023/02/28 07:22:08;;;;;;;0.68;0.68;;;1.40;99.90;;;;;;4347499;32;20612;-71
2023/02/28 07:24:34;;;;;;;0.82;0.82;;;1.40;99.90;;;;;;4353212;32;20089;-72
2023/02/28 07:27:01;;;;;;;0.50;0.50;;;1.50;99.90;;;;;;4354268;32;20150;-72
2023/02/28 07:29:27;;;;;;;0.68;0.68;;;1.60;99.90;;;;;;4353602;32;20585;-71
2023/02/28 07:31:53;;;;;;;0.77;0.77;;;1.70;99.90;;;;;;4356815;32;20127;-72
2023/02/28 07:34:20;;;;;;;0.80;0.80;;;1.70;99.90;;;;;;4357909;32;20102;-72
2023/02/28 07:36:45;;;;;;;0.50;0.50;;;1.80;99.90;;;;;;4355764;32;21116;-72
2023/02/28 07:39:11;;;;;;;0.45;0.45;;;1.90;99.90;;;;;;4359747;32;20148;-72
2023/02/28 07:41:43;;;;;;;2.25;1.98;;;2.00;99.90;;;;;;4353919;32;20435;-71
2023/02/28 07:44:10;;;;;;;0.40;0.40;;;2.10;99.90;;;;;;4350857;32;20122;-71
2023/02/28 07:46:36;;;;;;;0.95;0.95;;;2.20;99.90;;;;;;4358195;32;20106;-71
2023/02/28 07:49:02;;;;;;;0.52;0.52;;;2.30;99.90;;;;;;4360864;32;21068;-71
2023/02/28 07:51:28;;;;;;;0.40;0.40;;;2.40;99.90;;;;;;4347064;32;20152;-71
2023/02/28 07:53:54;;;;;;;0.50;0.50;;;2.60;99.90;;;;;;4349792;32;20215;-71
2023/02/28 07:56:19;;;;;;;0.90;0.82;;;2.60;99.90;;;;;;4352745;32;20102;-71
2023/02/28 07:58:45;;;;;;;0.65;0.65;;;2.70;99.90;;;;;;4356096;32;20283;-72
2023/02/28 08:01:11;;;;;;;1.05;0.95;;;2.80;99.90;;;;;;4345571;32;20091;-71
2023/02/28 08:03:37;;;;;;;0.40;0.40;;;2.90;99.90;;;;;;4356087;32;20195;-73
2023/02/28 08:06:05;;;;;;;2.28;1.17;;;3.10;99.90;;;;;;4353770;32;20511;-72
2023/02/28 08:08:31;;;;;;;0.52;0.52;;;3.20;99.90;;;;;;4354769;32;20066;-72
2023/02/28 08:11:00;;;;;;;1.12;0.85;;;3.20;99.90;;;;;;4366289;32;20086;-72
2023/02/28 08:13:27;;;;;;;0.75;0.75;;;3.30;99.90;;;;;;4359657;32;20859;-73
2023/02/28 08:15:53;;;;;;;1.35;1.25;;;3.40;99.90;;;;;;4361181;32;20106;-72
2023/02/28 08:18:19;;;;;;;0.40;0.40;;;3.50;99.90;;;;;;4354080;32;20144;-71
2023/02/28 08:20:44;;;;;;;0.57;0.57;;;3.50;99.90;;;;;;4355767;32;20612;-72
2023/02/28 08:23:10;;;;;;;0.40;0.40;;;3.60;99.90;;;;;;4352290;32;20102;-72
2023/02/28 08:25:35;;;;;;;0.50;0.50;;;3.70;99.90;;;;;;4353428;32;20398;-73
2023/02/28 08:28:01;;;;;;;0.40;0.40;;;3.90;99.90;;;;;;4352046;32;20129;-73
2023/02/28 08:30:26;;;;;;;0.60;0.60;;;4.00;99.90;;;;;;4356271;32;20110;-73
2023/02/28 08:32:52;;;;;;;0.40;0.40;;;4.00;99.90;;;;;;4352830;32;20109;-73
2023/02/28 08:35:18;;;;;;;0.40;0.40;;;4.10;99.90;;;;;;4355103;32;21545;-74
2023/02/28 08:37:44;;;;;;;0.50;0.50;;;4.20;99.90;;;;;;4364068;32;20144;-73
2023/02/28 08:40:13;;;;;;;1.25;1.08;;;4.30;99.90;;;;;;4361765;32;20195;-73
2023/02/28 08:42:38;;;;;;;1.30;0.75;;;4.40;99.90;;;;;;4370974;32;20569;-73
2023/02/28 08:45:04;;;;;;;0.45;0.45;;;4.50;99.90;;;;;;4362427;32;20664;-73
2023/02/28 08:47:30;;;;;;;0.60;0.60;;;4.60;99.90;;;;;;4350105;32;20251;-73
2023/02/28 08:49:55;;;;;;;0.30;0.30;;;4.60;99.90;;;;;;4350701;32;20738;-74
2023/02/28 08:52:21;;;;;;;0.50;0.50;;;4.70;99.90;;;;;;4345490;32;20916;-70
2023/02/28 08:54:46;;;;;;;0.80;0.80;;;4.80;99.90;;;;;;4325741;32;20105;-73
2023/02/28 08:57:12;;;;;;;14.48;4.32;;;4.90;99.90;;;;;;4334079;32;20184;-72
2023/02/28 08:59:37;;;;;;;0.55;0.55;;;4.80;99.90;;;;;;4346951;32;20101;-73
2023/02/28 09:02:03;;;;;;;0.50;0.50;;;4.60;99.90;;;;;;4343261;32;20109;-72
2023/02/28 09:04:30;;;;;;;0.45;0.45;;;4.50;99.90;;;;;;4344892;32;20941;-72
2023/02/28 09:06:56;;;;;;;0.40;0.40;;;4.50;99.90;;;;;;4352226;32;20098;-72
2023/02/28 09:09:22;;;;;;;0.50;0.50;;;4.60;99.90;;;;;;4349170;32;20579;-74
2023/02/28 09:11:48;;;;;;;0.40;0.40;;;4.70;99.90;;;;;;4340408;32;20151;-73
2023/02/28 09:14:13;;;;;;;0.82;0.82;;;4.90;99.90;;;;;;4337477;32;20102;-74
2023/02/28 09:16:39;;;;;;;0.40;0.40;;;5.10;99.90;;;;;;4350409;32;20862;-74
2023/02/28 09:19:04;;;;;;;0.40;0.40;;;5.30;99.90;;;;;;4357492;32;20209;-74
2023/02/28 09:21:31;;;;;;;2.20;1.30;;;5.30;99.90;;;;;;4348959;32;20114;-73
2023/02/28 09:23:56;;;;;;;0.30;0.30;;;5.30;99.90;;;;;;4352938;32;20506;-73
2023/02/28 09:26:24;;;;;;;0.60;0.60;;;5.30;99.90;;;;;;4357331;32;20852;-72
2023/02/28 09:28:51;;;;;;;0.30;0.30;;;5.50;99.90;;;;;;4345982;32;20347;-72
2023/02/28 09:31:21;;;;;;;0.50;0.50;;;5.60;99.90;;;;;;4353027;32;20609;-72
2023/02/28 09:33:49;;;;;;;4.40;0.82;;;5.60;99.90;;;;;;4339772;32;20214;-72
2023/02/28 09:36:14;;;;;;;0.50;0.50;;;5.60;99.70;;;;;;4344537;32;20102;-72
2023/02/28 09:38:40;;;;;;;5.28;1.48;;;5.60;99.90;;;;;;4345132;32;20163;-73
2023/02/28 09:41:18;;;;;;;0.50;0.50;;;5.70;99.90;;;;;;4345123;32;20694;-73
2023/02/28 09:43:49;;;;;;;0.40;0.40;;;5.70;99.90;;;;;;4339972;32;20846;-73
2023/02/28 09:46:29;;;;;;;0.95;0.93;;;5.90;99.90;;;;;;4342969;32;20742;-72
2023/02/28 09:48:55;;;;;;;2.95;0.73;;;5.80;99.40;;;;;;4349180;32;20325;-73
2023/02/28 09:51:44;;;;;;;0.40;0.40;;;5.90;99.40;;;;;;4346075;32;20115;-73
2023/02/28 09:54:18;;;;;;;0.50;0.50;;;6.00;99.70;;;;;;4332631;32;20416;-74
2023/02/28 09:56:47;;;;;;;0.45;0.45;;;6.20;99.80;;;;;;4345739;32;20090;-73
2023/02/28 09:59:38;;;;;;;1.27;0.95;;;6.50;98.80;;;;;;4341384;32;21647;-73
2023/02/28 10:02:37;;;;;;;0.50;0.50;;;6.60;99.30;;;;;;4328112;32;20077;-73
2023/02/28 10:05:12;;;;;;;0.57;0.57;;;6.70;97.90;;;;;;4346694;32;21079;-74
2023/02/28 10:08:08;;;;;;;0.40;0.40;;;7.00;97.70;;;;;;4342924;32;20115;-73
2023/02/28 10:10:44;;;;;;;0.30;0.30;;;6.90;98.10;;;;;;4344657;32;20101;-74
2023/02/28 10:13:40;;;;;;;0.62;0.62;;;6.70;97.70;;;;;;4341232;32;20577;-73
2023/02/28 10:16:10;;;;;;;0.30;0.30;;;6.90;97.30;;;;;;4334282;32;22336;-74
2023/02/28 10:19:02;;;;;;;0.60;0.60;;;7.00;99.80;;;;;;4348604;32;20095;-73
2023/02/28 10:21:33;;;;;;;1.17;1.05;;;7.10;97.30;;;;;;4330592;32;20679;-73
2023/02/28 10:24:04;;;;;;;0.75;0.75;;;7.20;97.20;;;;;;4335161;32;20106;-73
2023/02/28 10:26:32;;;;;;;0.40;0.40;;;7.40;97.10;;;;;;4347290;32;20111;-74
2023/02/28 10:28:57;;;;;;;0.70;0.62;;;7.40;96.00;;;;;;4344127;32;20098;-73
2023/02/28 10:31:23;;;;;;;2.35;1.40;;;7.50;97.20;;;;;;4334142;32;20246;-73
2023/02/28 10:33:49;;;;;;;0.62;0.62;;;7.70;96.50;;;;;;4325909;32;20094;-72
2023/02/28 10:36:18;;;;;;;0.40;0.40;;;7.80;95.90;;;;;;4337836;32;20168;-74
2023/02/28 10:38:45;;;;;;;0.30;0.30;;;7.70;95.50;;;;;;4338622;32;20693;-74
2023/02/28 10:41:14;;;;;;;1.08;0.57;;;7.70;96.20;;;;;;4339160;32;21022;-75
2023/02/28 10:43:41;;;;;;;0.52;0.52;;;7.60;95.30;;;;;;4345242;32;20149;-74
2023/02/28 10:46:10;;;;;;;10.63;1.83;;;7.50;95.20;;;;;;4332277;32;20766;-74
2023/02/28 10:48:38;;;;;;;1.10;0.85;;;7.40;95.70;;;;;;4324067;32;20276;-74
2023/02/28 10:51:07;;;;;;;0.70;0.70;;;7.30;95.60;;;;;;4342524;32;20077;-73
2023/02/28 10:53:37;;;;;;;0.32;0.32;;;7.20;95.00;;;;;;4342271;32;20863;-74
2023/02/28 10:56:12;;;;;;;0.30;0.30;;;7.20;95.50;;;;;;4346012;32;20197;-75
2023/02/28 10:59:00;;;;;;;0.30;0.30;;;7.20;96.10;;;;;;4341172;32;21244;-74
2023/02/28 11:01:46;;;;;;;0.32;0.32;;;7.20;95.10;;;;;;4333330;32;20109;-74
2023/02/28 11:04:29;;;;;;;0.40;0.40;;;7.30;96.30;;;;;;4343322;32;20598;-75
2023/02/28 11:07:05;;;;;;;0.50;0.50;;;7.30;95.20;;;;;;4338181;32;21041;-74
2023/02/28 11:09:35;;;;;;;0.40;0.40;;;7.20;94.90;;;;;;4336790;32;20101;-75
2023/02/28 11:12:04;;;;;;;0.50;0.50;;;7.40;95.60;;;;;;4342448;32;20765;-74
2023/02/28 11:14:34;;;;;;;0.40;0.40;;;7.90;95.30;;;;;;4326992;32;20510;-74
2023/02/28 11:17:14;;;;;;;0.55;0.55;;;8.00;95.40;;;;;;4330860;32;20106;-74
2023/02/28 11:19:45;;;;;;;1.00;0.85;;;8.10;94.20;;;;;;4341788;32;20115;-74
2023/02/28 11:22:21;;;;;;;0.70;0.70;;;8.20;95.30;;;;;;4357165;32;21632;-76
2023/02/28 11:24:51;;;;;;;0.60;0.60;;;8.40;93.90;;;;;;4364023;32;23603;-74
2023/02/28 11:27:40;;;;;;;0.65;0.65;;;8.40;94.60;;;;;;4359716;32;20127;-72
2023/02/28 11:30:23;;;;;;;0.32;0.32;;;8.60;92.70;;;;;;4348702;32;20114;-73
2023/02/28 11:32:49;;;;;;;0.40;0.40;;;8.30;93.00;;;;;;4354339;32;20109;-72
2023/02/28 11:35:26;;;;;;;0.47;0.47;;;8.40;93.50;;;;;;4363635;32;20726;-72
2023/02/28 11:37:52;;;;;;;0.88;0.82;;;8.90;92.30;;;;;;4371460;32;20082;-73
2023/02/28 11:40:29;;;;;;;0.68;0.68;;;8.90;92.40;;;;;;4367220;32;20101;-72
2023/02/28 11:43:09;;;;;;;0.40;0.40;;;9.00;92.20;;;;;;4354487;32;86327;-73
2023/02/28 11:46:03;;;;;;;0.45;0.45;;;9.00;92.40;;;;;;4362541;32;20439;-74
2023/02/28 11:48:42;;;;;;;0.32;0.32;;;8.80;91.20;;;;;;4350558;32;20085;-74
2023/02/28 11:51:23;;;;;;;0.40;0.40;;;8.70;92.70;;;;;;4359800;32;20110;-74
2023/02/28 11:54:16;;;;;;;0.50;0.50;;;9.00;92.30;;;;;;4351619;32;20282;-75
2023/02/28 11:57:08;;;;;;;0.50;0.50;;;9.50;91.80;;;;;;4339931;32;20557;-75
2023/02/28 11:59:54;;;;;;;0.32;0.32;;;9.60;91.00;;;;;;4339485;32;20553;-75
2023/02/28 12:02:28;;;;;;;0.60;0.60;;;10.00;90.30;;;;;;4337312;32;20090;-75
2023/02/28 12:05:11;;;;;;;0.60;0.60;;;10.10;90.60;;;;;;4358425;32;20137;-75
2023/02/28 12:07:59;;;;;;;0.65;0.65;;;10.50;89.40;;;;;;4347121;32;20121;-75
2023/02/28 12:10:29;;;;;;;0.40;0.40;;;10.40;90.20;;;;;;4339001;32;20110;-75
2023/02/28 12:13:10;;;;;;;0.77;0.77;;;10.60;87.70;;;;;;4363940;32;20085;-75
2023/02/28 12:15:42;;;;;;;0.40;0.40;;;10.50;86.90;;;;;;4362920;32;20800;-75
2023/02/28 12:18:38;;;;;;;0.40;0.40;;;11.00;87.10;;;;;;4358652;32;20395;-74
2023/02/28 12:21:17;;;;;;;0.70;0.70;;;11.20;85.90;;;;;;4343230;32;20614;-74
2023/02/28 12:24:11;;;;;;;0.60;0.60;;;11.30;85.50;;;;;;4366690;32;20358;-74
2023/02/28 12:26:44;;;;;;;2.47;1.65;;;11.50;84.50;;;;;;4356277;32;20090;-75
2023/02/28 12:29:19;;;;;;;2.62;0.60;;;11.70;83.90;;;;;;4361523;32;20135;-75
2023/02/28 12:31:55;;;;;;;0.52;0.52;;;11.40;81.90;;;;;;4361099;32;20098;-75
2023/02/28 12:34:28;;;;;;;0.40;0.40;;;11.20;82.90;;;;;;4355828;32;20089;-75
2023/02/28 12:36:55;;;;;;;15.60;0.60;;;11.90;81.10;;;;;;4347282;32;20943;-75
2023/02/28 12:39:26;;;;;;;2.47;1.05;;;12.30;78.70;;;;;;4346150;32;20444;-75
2023/02/28 12:41:58;;;;;;;1.65;1.37;;;12.30;77.00;;;;;;4344431;32;20097;-74
2023/02/28 12:44:33;;;;;;;1.37;1.25;;;11.70;76.50;;;;;;4356567;32;20376;-74
2023/02/28 12:47:04;;;;;;;0.50;0.50;;;11.70;81.30;;;;;;4364555;32;20826;-74
2023/02/28 12:49:37;;;;;;;0.40;0.40;;;11.90;79.70;;;;;;4364606;32;20093;-74
2023/02/28 12:52:03;;;;;;;0.77;0.77;;;12.10;79.10;;;;;;4363017;32;20425;-75
2023/02/28 12:54:52;;;;;;;0.60;0.60;;;12.20;79.00;;;;;;4352228;32;20082;-75
2023/02/28 12:57:42;;;;;;;0.45;0.45;;;12.70;78.90;;;;;;4359798;32;20114;-75
2023/02/28 13:00:18;;;;;;;0.68;0.68;;;13.20;77.20;;;;;;4348425;32;20622;-74
2023/02/28 13:03:05;;;;;;;0.57;0.57;;;13.00;73.70;;;;;;4359717;32;20460;-76
2023/02/28 13:05:39;;;;;;;3.12;0.70;;;13.30;73.00;;;;;;4353852;32;20410;-75
2023/02/28 13:08:44;;;;;;;0.80;0.80;;;13.40;72.90;;;;;;4359728;32;20523;-75
2023/02/28 13:11:32;;;;;;;1.12;0.52;;;12.80;73.60;;;;;;4343602;32;20137;-76
2023/02/28 13:14:03;;;;;;;0.43;0.43;;;12.70;77.20;;;;;;4352677;32;20121;-75